Terminal Aerodrome Forecast
Issued by NWS

Home | Current Version | Previous Version | Text Only | Print | Product List | Glossary On
Versions: 1 2 3 4 5 6 7 8 9 10 11 12 13 14 15 16 17 18 19
000
FTUS46 KOTX 041140
TAFCOE
TAF
KCOE 041140Z 0412/0512 23010G15KT P6SM -RA BKN025 OVC040
     FM041700 23012G17KT P6SM SCT025 BKN070 OVC100
     FM042000 25015G22KT P6SM VCSH BKN030 BKN060
     FM042200 26013G18KT P6SM SCT060 SCT100
     FM050000 27009KT P6SM SCT100=

USA.gov is the U.S. government's official web portal to all federal, state and local government web resources and services.